sensor_id;sensor_type;location;lat;lon;timestamp;pressure;altitude;pressure_sealevel;temperature;humidity
53340;BME280;46212;50.258;19.062;2022-11-14T00:02:02;99615.13;;;5.23;100.00
53340;BME280;46212;50.258;19.062;2022-11-14T00:04:27;99633.44;;;5.51;100.00
53340;BME280;46212;50.258;19.062;2022-11-14T00:06:53;99631.06;;;5.53;100.00
53340;BME280;46212;50.258;19.062;2022-11-14T00:09:18;99624.84;;;5.38;100.00
53340;BME280;46212;50.258;19.062;2022-11-14T00:11:43;99622.84;;;5.49;100.00
53340;BME280;46212;50.258;19.062;2022-11-14T00:14:10;99620.16;;;5.42;100.00
53340;BME280;46212;50.258;19.062;2022-11-14T00:16:35;99622.03;;;5.56;100.00
53340;BME280;46212;50.258;19.062;2022-11-14T00:19:01;99608.44;;;5.31;100.00
53340;BME280;46212;50.258;19.062;2022-11-14T00:21:27;99608.09;;;5.08;100.00
53340;BME280;46212;50.258;19.062;2022-11-14T00:23:52;99603.34;;;5.33;100.00
53340;BME280;46212;50.258;19.062;2022-11-14T00:26:17;99625.22;;;5.40;100.00
53340;BME280;46212;50.258;19.062;2022-11-14T00:28:43;99624.09;;;5.30;100.00
53340;BME280;46212;50.258;19.062;2022-11-14T00:31:09;99618.63;;;5.23;100.00
53340;BME280;46212;50.258;19.062;2022-11-14T00:33:35;99624.81;;;5.49;100.00
53340;BME280;46212;50.258;19.062;2022-11-14T00:36:00;99609.94;;;5.50;100.00
53340;BME280;46212;50.258;19.062;2022-11-14T00:38:26;99622.03;;;5.56;100.00
53340;BME280;46212;50.258;19.062;2022-11-14T00:40:51;99622.94;;;5.21;100.00
53340;BME280;46212;50.258;19.062;2022-11-14T00:43:17;99611.53;;;5.47;100.00
53340;BME280;46212;50.258;19.062;2022-11-14T00:45:43;99626.00;;;5.51;100.00
53340;BME280;46212;50.258;19.062;2022-11-14T00:48:09;99632.28;;;5.38;100.00
53340;BME280;46212;50.258;19.062;2022-11-14T00:50:34;99633.13;;;5.17;100.00
53340;BME280;46212;50.258;19.062;2022-11-14T00:52:59;99631.56;;;5.19;100.00
53340;BME280;46212;50.258;19.062;2022-11-14T00:55:25;99620.97;;;5.28;100.00
53340;BME280;46212;50.258;19.062;2022-11-14T00:57:50;99636.25;;;5.26;100.00
53340;BME280;46212;50.258;19.062;2022-11-14T01:00:16;99628.41;;;5.31;100.00
53340;BME280;46212;50.258;19.062;2022-11-14T01:02:41;99610.03;;;5.21;100.00
53340;BME280;46212;50.258;19.062;2022-11-14T01:05:07;99622.50;;;5.36;100.00
53340;BME280;46212;50.258;19.062;2022-11-14T01:07:32;99600.22;;;5.31;100.00
53340;BME280;46212;50.258;19.062;2022-11-14T01:09:57;99613.03;;;5.62;100.00
53340;BME280;46212;50.258;19.062;2022-11-14T01:12:23;99589.25;;;5.34;100.00
53340;BME280;46212;50.258;19.062;2022-11-14T01:14:48;99599.41;;;5.38;100.00
53340;BME280;46212;50.258;19.062;2022-11-14T01:17:13;99601.75;;;5.39;100.00
53340;BME280;46212;50.258;19.062;2022-11-14T01:19:39;99588.09;;;5.28;100.00
53340;BME280;46212;50.258;19.062;2022-11-14T01:22:05;99573.28;;;5.12;100.00
53340;BME280;46212;50.258;19.062;2022-11-14T01:24:31;99574.94;;;4.85;100.00
53340;BME280;46212;50.258;19.062;2022-11-14T01:26:58;99587.34;;;5.14;100.00
53340;BME280;46212;50.258;19.062;2022-11-14T01:29:23;99580.75;;;4.97;100.00
53340;BME280;46212;50.258;19.062;2022-11-14T01:31:48;99564.72;;;4.96;100.00
53340;BME280;46212;50.258;19.062;2022-11-14T01:34:14;99572.13;;;5.06;100.00
53340;BME280;46212;50.258;19.062;2022-11-14T01:36:39;99547.03;;;5.21;100.00
53340;BME280;46212;50.258;19.062;2022-11-14T01:39:04;99548.28;;;5.06;100.00
53340;BME280;46212;50.258;19.062;2022-11-14T01:41:30;99565.84;;;5.19;100.00
53340;BME280;46212;50.258;19.062;2022-11-14T01:43:55;99566.97;;;5.32;100.00
53340;BME280;46212;50.258;19.062;2022-11-14T01:46:30;99562.34;;;5.12;100.00
53340;BME280;46212;50.258;19.062;2022-11-14T01:49:04;99548.28;;;5.03;100.00
53340;BME280;46212;50.258;19.062;2022-11-14T01:51:33;99542.03;;;4.99;100.00
53340;BME280;46212;50.258;19.062;2022-11-14T01:54:03;99551.34;;;5.26;100.00
53340;BME280;46212;50.258;19.062;2022-11-14T01:56:37;99541.19;;;5.23;100.00
53340;BME280;46212;50.258;19.062;2022-11-14T01:59:12;99549.78;;;5.21;100.00
53340;BME280;46212;50.258;19.062;2022-11-14T02:01:45;99552.50;;;5.25;100.00
53340;BME280;46212;50.258;19.062;2022-11-14T02:04:16;99538.84;;;5.21;100.00
53340;BME280;46212;50.258;19.062;2022-11-14T02:06:43;99545.19;;;4.97;100.00
53340;BME280;46212;50.258;19.062;2022-11-14T02:09:09;99552.16;;;5.16;100.00
53340;BME280;46212;50.258;19.062;2022-11-14T02:11:38;99544.34;;;5.11;100.00
53340;BME280;46212;50.258;19.062;2022-11-14T02:14:05;99541.25;;;5.02;100.00
53340;BME280;46212;50.258;19.062;2022-11-14T02:16:30;99543.66;;;4.78;100.00
53340;BME280;46212;50.258;19.062;2022-11-14T02:18:56;99532.31;;;4.83;100.00
53340;BME280;46212;50.258;19.062;2022-11-14T02:21:21;99535.41;;;4.86;100.00
53340;BME280;46212;50.258;19.062;2022-11-14T02:23:47;99512.38;;;4.79;100.00
53340;BME280;46212;50.258;19.062;2022-11-14T02:26:18;99529.91;;;5.00;100.00
53340;BME280;46212;50.258;19.062;2022-11-14T02:28:45;99539.31;;;4.95;100.00
53340;BME280;46212;50.258;19.062;2022-11-14T02:31:10;99532.28;;;4.98;100.00
53340;BME280;46212;50.258;19.062;2022-11-14T02:33:36;99535.75;;;5.02;100.00
53340;BME280;46212;50.258;19.062;2022-11-14T02:36:02;99533.44;;;4.93;100.00
53340;BME280;46212;50.258;19.062;2022-11-14T02:38:27;99537.69;;;5.08;100.00
53340;BME280;46212;50.258;19.062;2022-11-14T02:40:52;99534.56;;;5.17;100.00
53340;BME280;46212;50.258;19.062;2022-11-14T02:43:18;99522.41;;;5.21;100.00
53340;BME280;46212;50.258;19.062;2022-11-14T02:45:43;99533.66;;;5.48;100.00
53340;BME280;46212;50.258;19.062;2022-11-14T02:48:08;99513.72;;;5.37;100.00
53340;BME280;46212;50.258;19.062;2022-11-14T02:50:34;99509.16;;;5.06;100.00
53340;BME280;46212;50.258;19.062;2022-11-14T02:52:59;99509.94;;;5.06;100.00
53340;BME280;46212;50.258;19.062;2022-11-14T02:55:25;99515.41;;;5.10;100.00
53340;BME280;46212;50.258;19.062;2022-11-14T02:57:50;99511.13;;;5.02;100.00
53340;BME280;46212;50.258;19.062;2022-11-14T03:00:16;99491.59;;;5.00;100.00
53340;BME280;46212;50.258;19.062;2022-11-14T03:02:41;99502.88;;;5.16;100.00
53340;BME280;46212;50.258;19.062;2022-11-14T03:05:07;99512.22;;;5.29;100.00
53340;BME280;46212;50.258;19.062;2022-11-14T03:07:32;99512.94;;;5.36;100.00
53340;BME280;46212;50.258;19.062;2022-11-14T03:09:58;99493.84;;;5.22;100.00
53340;BME280;46212;50.258;19.062;2022-11-14T03:12:23;99507.94;;;5.17;100.00
53340;BME280;46212;50.258;19.062;2022-11-14T03:14:48;99510.63;;;5.35;100.00
53340;BME280;46212;50.258;19.062;2022-11-14T03:17:14;99507.59;;;5.01;100.00
53340;BME280;46212;50.258;19.062;2022-11-14T03:19:39;99501.03;;;4.77;100.00
53340;BME280;46212;50.258;19.062;2022-11-14T03:22:04;99504.97;;;4.69;100.00
53340;BME280;46212;50.258;19.062;2022-11-14T03:24:30;99501.47;;;4.58;100.00
53340;BME280;46212;50.258;19.062;2022-11-14T03:26:55;99496.38;;;4.71;100.00
53340;BME280;46212;50.258;19.062;2022-11-14T03:29:20;99498.66;;;4.87;100.00
53340;BME280;46212;50.258;19.062;2022-11-14T03:31:46;99493.59;;;4.85;100.00
53340;BME280;46212;50.258;19.062;2022-11-14T03:34:11;99484.59;;;4.88;100.00
53340;BME280;46212;50.258;19.062;2022-11-14T03:36:37;99508.44;;;4.95;100.00
53340;BME280;46212;50.258;19.062;2022-11-14T03:39:03;99502.63;;;4.71;100.00
53340;BME280;46212;50.258;19.062;2022-11-14T03:41:29;99492.06;;;4.73;100.00
53340;BME280;46212;50.258;19.062;2022-11-14T03:43:55;99510.41;;;4.83;100.00
53340;BME280;46212;50.258;19.062;2022-11-14T03:46:20;99488.16;;;4.71;100.00
53340;BME280;46212;50.258;19.062;2022-11-14T03:48:45;99488.84;;;5.00;100.00
53340;BME280;46212;50.258;19.062;2022-11-14T03:51:11;99495.03;;;5.18;100.00
53340;BME280;46212;50.258;19.062;2022-11-14T03:53:36;99482.13;;;5.15;100.00
53340;BME280;46212;50.258;19.062;2022-11-14T03:56:01;99491.91;;;5.19;100.00
53340;BME280;46212;50.258;19.062;2022-11-14T03:58:27;99489.50;;;5.32;100.00
53340;BME280;46212;50.258;19.062;2022-11-14T04:00:52;99496.59;;;5.19;100.00
53340;BME280;46212;50.258;19.062;2022-11-14T04:03:20;99482.56;;;5.10;100.00
53340;BME280;46212;50.258;19.062;2022-11-14T04:05:46;99483.34;;;5.10;100.00
53340;BME280;46212;50.258;19.062;2022-11-14T04:08:11;99490.34;;;5.18;100.00
53340;BME280;46212;50.258;19.062;2022-11-14T04:10:36;99482.53;;;5.17;100.00
53340;BME280;46212;50.258;19.062;2022-11-14T04:13:03;99486.88;;;5.04;100.00
53340;BME280;46212;50.258;19.062;2022-11-14T04:15:28;99490.00;;;5.06;100.00
53340;BME280;46212;50.258;19.062;2022-11-14T04:17:54;99482.91;;;5.22;100.00
53340;BME280;46212;50.258;19.062;2022-11-14T04:20:19;99484.06;;;5.18;100.00
53340;BME280;46212;50.258;19.062;2022-11-14T04:22:45;99480.19;;;5.15;100.00
53340;BME280;46212;50.258;19.062;2022-11-14T04:25:10;99482.47;;;5.24;100.00
53340;BME280;46212;50.258;19.062;2022-11-14T04:27:36;99464.97;;;5.07;100.00
53340;BME280;46212;50.258;19.062;2022-11-14T04:30:02;99481.31;;;5.21;100.00
53340;BME280;46212;50.258;19.062;2022-11-14T04:32:27;99482.78;;;5.40;100.00
53340;BME280;46212;50.258;19.062;2022-11-14T04:34:53;99476.16;;;5.41;100.00
53340;BME280;46212;50.258;19.062;2022-11-14T04:37:18;99474.19;;;5.42;100.00
53340;BME280;46212;50.258;19.062;2022-11-14T04:39:43;99472.63;;;5.41;100.00
53340;BME280;46212;50.258;19.062;2022-11-14T04:42:09;99480.34;;;5.56;99.82
53340;BME280;46212;50.258;19.062;2022-11-14T04:44:34;99482.75;;;5.51;99.22
53340;BME280;46212;50.258;19.062;2022-11-14T04:46:59;99480.09;;;5.33;100.00
53340;BME280;46212;50.258;19.062;2022-11-14T04:49:25;99478.44;;;5.50;100.00
53340;BME280;46212;50.258;19.062;2022-11-14T04:51:50;99476.94;;;5.38;99.44
53340;BME280;46212;50.258;19.062;2022-11-14T04:54:15;99480.47;;;5.42;99.97
53340;BME280;46212;50.258;19.062;2022-11-14T04:56:41;99485.53;;;5.40;99.80
53340;BME280;46212;50.258;19.062;2022-11-14T04:59:06;99471.50;;;5.31;100.00
53340;BME280;46212;50.258;19.062;2022-11-14T05:01:32;99466.00;;;5.38;99.30
53340;BME280;46212;50.258;19.062;2022-11-14T05:03:57;99464.97;;;5.07;100.00
53340;BME280;46212;50.258;19.062;2022-11-14T05:06:23;99479.41;;;5.15;100.00
53340;BME280;46212;50.258;19.062;2022-11-14T05:08:48;99462.97;;;5.15;100.00
53340;BME280;46212;50.258;19.062;2022-11-14T05:11:18;99466.94;;;5.00;100.00
53340;BME280;46212;50.258;19.062;2022-11-14T05:13:44;99470.53;;;4.82;100.00
53340;BME280;46212;50.258;19.062;2022-11-14T05:16:10;99448.34;;;4.52;100.00
53340;BME280;46212;50.258;19.062;2022-11-14T05:18:36;99459.22;;;4.80;100.00
53340;BME280;46212;50.258;19.062;2022-11-14T05:21:02;99467.78;;;4.79;100.00
53340;BME280;46212;50.258;19.062;2022-11-14T05:23:28;99467.84;;;4.72;100.00
53340;BME280;46212;50.258;19.062;2022-11-14T05:25:59;99468.16;;;4.92;100.00
53340;BME280;46212;50.258;19.062;2022-11-14T05:28:24;99466.53;;;5.05;100.00
53340;BME280;46212;50.258;19.062;2022-11-14T05:30:49;99470.47;;;5.00;100.00
53340;BME280;46212;50.258;19.062;2022-11-14T05:33:15;99472.34;;;5.14;100.00
53340;BME280;46212;50.258;19.062;2022-11-14T05:35:40;99467.66;;;5.18;100.00
53340;BME280;46212;50.258;19.062;2022-11-14T05:38:05;99475.16;;;5.00;100.00
53340;BME280;46212;50.258;19.062;2022-11-14T05:40:31;99469.72;;;4.93;100.00
53340;BME280;46212;50.258;19.062;2022-11-14T05:42:56;99454.88;;;4.90;100.00
53340;BME280;46212;50.258;19.062;2022-11-14T05:45:22;99471.16;;;5.22;100.00
53340;BME280;46212;50.258;19.062;2022-11-14T05:47:47;99474.03;;;4.94;100.00
53340;BME280;46212;50.258;19.062;2022-11-14T05:50:12;99460.78;;;4.78;100.00
53340;BME280;46212;50.258;19.062;2022-11-14T05:52:38;99466.94;;;5.00;100.00
53340;BME280;46212;50.258;19.062;2022-11-14T05:55:03;99468.53;;;4.97;100.00
53340;BME280;46212;50.258;19.062;2022-11-14T05:57:29;99469.34;;;4.83;100.00
53340;BME280;46212;50.258;19.062;2022-11-14T05:59:54;99463.44;;;4.92;100.00
53340;BME280;46212;50.258;19.062;2022-11-14T06:02:21;99457.25;;;4.81;100.00
53340;BME280;46212;50.258;19.062;2022-11-14T06:04:46;99466.63;;;4.80;100.00
53340;BME280;46212;50.258;19.062;2022-11-14T06:07:12;99453.75;;;4.73;100.00
53340;BME280;46212;50.258;19.062;2022-11-14T06:09:37;99452.97;;;4.76;100.00
53340;BME280;46212;50.258;19.062;2022-11-14T06:12:03;99464.25;;;4.89;100.00
53340;BME280;46212;50.258;19.062;2022-11-14T06:14:32;99451.78;;;4.85;100.00
53340;BME280;46212;50.258;19.062;2022-11-14T06:16:57;99469.72;;;4.86;100.00
53340;BME280;46212;50.258;19.062;2022-11-14T06:19:22;99467.78;;;4.79;100.00
53340;BME280;46212;50.258;19.062;2022-11-14T06:21:48;99456.81;;;4.93;100.00
53340;BME280;46212;50.258;19.062;2022-11-14T06:24:13;99468.13;;;4.95;100.00
53340;BME280;46212;50.258;19.062;2022-11-14T06:26:38;99462.66;;;4.95;100.00
53340;BME280;46212;50.258;19.062;2022-11-14T06:29:04;99475.59;;;4.91;100.00
53340;BME280;46212;50.258;19.062;2022-11-14T06:31:31;99481.06;;;4.95;100.00
53340;BME280;46212;50.258;19.062;2022-11-14T06:33:56;99482.97;;;5.05;100.00
53340;BME280;46212;50.258;19.062;2022-11-14T06:36:21;99474.72;;;5.08;100.00
53340;BME280;46212;50.258;19.062;2022-11-14T06:38:47;99484.84;;;5.22;100.00
53340;BME280;46212;50.258;19.062;2022-11-14T06:41:18;99467.75;;;4.93;100.00
53340;BME280;46212;50.258;19.062;2022-11-14T06:43:45;99484.16;;;5.00;100.00
53340;BME280;46212;50.258;19.062;2022-11-14T06:46:14;99481.50;;;4.75;100.00
53340;BME280;46212;50.258;19.062;2022-11-14T06:48:40;99487.81;;;4.51;100.00
53340;BME280;46212;50.258;19.062;2022-11-14T06:51:06;99480.38;;;4.62;100.00
53340;BME280;46212;50.258;19.062;2022-11-14T06:53:33;99468.25;;;4.63;100.00
53340;BME280;46212;50.258;19.062;2022-11-14T06:56:10;99474.13;;;4.51;100.00
53340;BME280;46212;50.258;19.062;2022-11-14T06:58:39;99487.00;;;4.75;100.00
53340;BME280;46212;50.258;19.062;2022-11-14T07:01:14;99491.25;;;4.76;100.00
53340;BME280;46212;50.258;19.062;2022-11-14T07:03:40;99472.53;;;4.71;100.00
53340;BME280;46212;50.258;19.062;2022-11-14T07:06:07;99469.72;;;4.89;100.00
53340;BME280;46212;50.258;19.062;2022-11-14T07:08:32;99488.13;;;4.85;100.00
53340;BME280;46212;50.258;19.062;2022-11-14T07:11:03;99482.59;;;4.99;100.00
53340;BME280;46212;50.258;19.062;2022-11-14T07:13:29;99463.78;;;5.05;100.00
53340;BME280;46212;50.258;19.062;2022-11-14T07:15:55;99489.53;;;5.25;100.00
53340;BME280;46212;50.258;19.062;2022-11-14T07:18:20;99492.56;;;5.45;100.00
53340;BME280;46212;50.258;19.062;2022-11-14T07:20:46;99483.56;;;5.44;99.94
53340;BME280;46212;50.258;19.062;2022-11-14T07:23:12;99473.06;;;5.35;99.97
53340;BME280;46212;50.258;19.062;2022-11-14T07:25:37;99474.09;;;5.56;99.12
53340;BME280;46212;50.258;19.062;2022-11-14T07:28:03;99460.69;;;5.72;98.88
53340;BME280;46212;50.258;19.062;2022-11-14T07:30:28;99454.88;;;5.59;98.24
53340;BME280;46212;50.258;19.062;2022-11-14T07:32:55;99474.09;;;5.56;99.39
53340;BME280;46212;50.258;19.062;2022-11-14T07:35:20;99482.63;;;5.68;99.32
53340;BME280;46212;50.258;19.062;2022-11-14T07:37:46;99481.09;;;5.67;98.52
53340;BME280;46212;50.258;19.062;2022-11-14T07:40:11;99464.75;;;5.46;98.62
53340;BME280;46212;50.258;19.062;2022-11-14T07:42:37;99467.16;;;5.41;98.14
53340;BME280;46212;50.258;19.062;2022-11-14T07:45:02;99477.25;;;5.51;98.80
53340;BME280;46212;50.258;19.062;2022-11-14T07:47:27;99479.59;;;5.52;99.14
53340;BME280;46212;50.258;19.062;2022-11-14T07:49:53;99473.75;;;5.50;99.07
53340;BME280;46212;50.258;19.062;2022-11-14T07:52:18;99456.03;;;5.62;98.49
53340;BME280;46212;50.258;19.062;2022-11-14T07:54:43;99470.63;;;5.52;98.60
53340;BME280;46212;50.258;19.062;2022-11-14T07:57:09;99432.94;;;5.66;98.62
53340;BME280;46212;50.258;19.062;2022-11-14T07:59:34;99436.00;;;5.75;97.96
53340;BME280;46212;50.258;19.062;2022-11-14T08:01:59;99435.19;;;5.78;98.03
53340;BME280;46212;50.258;19.062;2022-11-14T08:04:25;99451.97;;;5.87;97.68
53340;BME280;46212;50.258;19.062;2022-11-14T08:06:50;99445.66;;;5.94;97.27
53340;BME280;46212;50.258;19.062;2022-11-14T08:09:16;99432.34;;;5.96;96.93
53340;BME280;46212;50.258;19.062;2022-11-14T08:11:41;99420.97;;;5.98;96.79
53340;BME280;46212;50.258;19.062;2022-11-14T08:14:13;99416.19;;;6.05;96.44
53340;BME280;46212;50.258;19.062;2022-11-14T08:16:38;99426.88;;;5.93;96.99
53340;BME280;46212;50.258;19.062;2022-11-14T08:19:04;99433.00;;;6.07;97.55
53340;BME280;46212;50.258;19.062;2022-11-14T08:21:29;99425.88;;;6.17;96.79
53340;BME280;46212;50.258;19.062;2022-11-14T08:23:54;99431.53;;;6.40;95.81
53340;BME280;46212;50.258;19.062;2022-11-14T08:26:20;99419.06;;;6.32;95.27
53340;BME280;46212;50.258;19.062;2022-11-14T08:28:45;99422.53;;;6.39;95.27
53340;BME280;46212;50.258;19.062;2022-11-14T08:31:11;99412.88;;;6.24;95.89
53340;BME280;46212;50.258;19.062;2022-11-14T08:33:38;99428.50;;;6.31;96.02
53340;BME280;46212;50.258;19.062;2022-11-14T08:36:05;99429.25;;;6.31;96.45
53340;BME280;46212;50.258;19.062;2022-11-14T08:38:32;99425.31;;;6.36;96.27
53340;BME280;46212;50.258;19.062;2022-11-14T08:40:58;99420.31;;;6.27;96.05
53340;BME280;46212;50.258;19.062;2022-11-14T08:43:24;99421.38;;;6.37;96.27
53340;BME280;46212;50.258;19.062;2022-11-14T08:45:50;99415.66;;;6.58;96.29
53340;BME280;46212;50.258;19.062;2022-11-14T08:48:15;99419.47;;;6.68;95.85
53340;BME280;46212;50.258;19.062;2022-11-14T08:50:41;99422.66;;;6.63;94.31
53340;BME280;46212;50.258;19.062;2022-11-14T08:53:06;99411.78;;;6.56;94.09
53340;BME280;46212;50.258;19.062;2022-11-14T08:55:31;99397.28;;;6.18;94.92
53340;BME280;46212;50.258;19.062;2022-11-14T08:57:57;99411.84;;;6.49;94.71
53340;BME280;46212;50.258;19.062;2022-11-14T09:00:22;99418.78;;;6.57;94.42
53340;BME280;46212;50.258;19.062;2022-11-14T09:02:48;99413.41;;;6.83;93.15
53340;BME280;46212;50.258;19.062;2022-11-14T09:05:13;99401.94;;;6.58;93.41
53340;BME280;46212;50.258;19.062;2022-11-14T09:07:38;99406.13;;;6.66;94.35
53340;BME280;46212;50.258;19.062;2022-11-14T09:10:05;99405.06;;;6.90;93.85
53340;BME280;46212;50.258;19.062;2022-11-14T09:12:30;99403.47;;;6.93;92.94
53340;BME280;46212;50.258;19.062;2022-11-14T09:14:55;99406.75;;;7.11;92.59
53340;BME280;46212;50.258;19.062;2022-11-14T09:17:21;99409.22;;;7.02;92.13
53340;BME280;46212;50.258;19.062;2022-11-14T09:19:46;99409.53;;;7.08;92.81
53340;BME280;46212;50.258;19.062;2022-11-14T09:22:11;99419.59;;;6.91;93.30
53340;BME280;46212;50.258;19.062;2022-11-14T09:24:37;99397.28;;;6.85;93.01
53340;BME280;46212;50.258;19.062;2022-11-14T09:27:02;99408.41;;;7.05;93.13
53340;BME280;46212;50.258;19.062;2022-11-14T09:29:27;99414.22;;;6.80;92.54
53340;BME280;46212;50.258;19.062;2022-11-14T09:31:53;99395.03;;;6.77;93.76
53340;BME280;46212;50.258;19.062;2022-11-14T09:34:19;99393.28;;;6.93;93.23
53340;BME280;46212;50.258;19.062;2022-11-14T09:36:44;99400.97;;;7.32;91.88
53340;BME280;46212;50.258;19.062;2022-11-14T09:39:11;99387.91;;;7.40;91.73
53340;BME280;46212;50.258;19.062;2022-11-14T09:42:17;99383.59;;;7.39;91.21
53340;BME280;46212;50.258;19.062;2022-11-14T09:44:59;99376.41;;;7.72;89.52
53340;BME280;46212;50.258;19.062;2022-11-14T09:47:32;99368.09;;;7.75;88.78
53340;BME280;46212;50.258;19.062;2022-11-14T09:50:13;99368.00;;;7.82;87.99
53340;BME280;46212;50.258;19.062;2022-11-14T09:52:41;99374.47;;;7.45;89.73
53340;BME280;46212;50.258;19.062;2022-11-14T09:55:16;99374.19;;;7.63;90.58
53340;BME280;46212;50.258;19.062;2022-11-14T09:57:43;99375.41;;;7.85;89.11
53340;BME280;46212;50.258;19.062;2022-11-14T10:00:24;99379.63;;;7.90;88.99
53340;BME280;46212;50.258;19.062;2022-11-14T10:10:52;99361.25;;;7.64;90.80
53340;BME280;46212;50.258;19.062;2022-11-14T10:13:34;99354.41;;;7.72;90.08
53340;BME280;46212;50.258;19.062;2022-11-14T10:16:34;99353.34;;;7.89;89.55
53340;BME280;46212;50.258;19.062;2022-11-14T10:19:36;99349.69;;;7.95;89.81
53340;BME280;46212;50.258;19.062;2022-11-14T10:27:24;99318.53;;;8.02;88.94
53340;BME280;46212;50.258;19.062;2022-11-14T10:30:13;99334.94;;;8.06;88.60
53340;BME280;46212;50.258;19.062;2022-11-14T10:35:34;99311.19;;;8.15;88.14
53340;BME280;46212;50.258;19.062;2022-11-14T10:38:37;99329.72;;;8.34;87.71
53340;BME280;46212;50.258;19.062;2022-11-14T10:41:07;99324.81;;;8.22;87.99
53340;BME280;46212;50.258;19.062;2022-11-14T10:43:45;99332.31;;;7.79;89.21
53340;BME280;46212;50.258;19.062;2022-11-14T10:46:25;99328.47;;;8.16;89.05
53340;BME280;46212;50.258;19.062;2022-11-14T10:48:52;99308.16;;;8.10;87.92
53340;BME280;46212;50.258;19.062;2022-11-14T10:51:32;99298.28;;;7.92;88.01
53340;BME280;46212;50.258;19.062;2022-11-14T10:54:04;99307.50;;;8.45;87.05
53340;BME280;46212;50.258;19.062;2022-11-14T10:56:31;99305.66;;;8.58;85.39
53340;BME280;46212;50.258;19.062;2022-11-14T10:58:57;99277.88;;;8.52;84.97
53340;BME280;46212;50.258;19.062;2022-11-14T11:01:40;99300.16;;;8.58;85.62
53340;BME280;46212;50.258;19.062;2022-11-14T11:04:25;99272.06;;;8.47;85.71
53340;BME280;46212;50.258;19.062;2022-11-14T11:06:54;99272.44;;;8.49;86.13
53340;BME280;46212;50.258;19.062;2022-11-14T11:09:26;99277.41;;;8.74;84.75
53340;BME280;46212;50.258;19.062;2022-11-14T11:12:16;99280.16;;;8.74;84.16
53340;BME280;46212;50.258;19.062;2022-11-14T11:14:46;99272.22;;;8.76;84.07
53340;BME280;46212;50.258;19.062;2022-11-14T11:19:40;99261.69;;;8.15;86.07
53340;BME280;46212;50.258;19.062;2022-11-14T11:22:35;99259.28;;;7.97;88.05
53340;BME280;46212;50.258;19.062;2022-11-14T11:25:19;99258.94;;;8.35;86.84
53340;BME280;46212;50.258;19.062;2022-11-14T11:28:06;99241.44;;;8.06;88.09
53340;BME280;46212;50.258;19.062;2022-11-14T11:30:34;99235.25;;;8.01;88.61
53340;BME280;46212;50.258;19.062;2022-11-14T11:33:30;99260.91;;;8.34;88.10
53340;BME280;46212;50.258;19.062;2022-11-14T11:35:59;99257.22;;;8.61;87.01
53340;BME280;46212;50.258;19.062;2022-11-14T11:38:27;99246.41;;;8.70;86.14
53340;BME280;46212;50.258;19.062;2022-11-14T11:41:00;99246.28;;;8.93;85.78
53340;BME280;46212;50.258;19.062;2022-11-14T11:46:08;99244.13;;;9.17;83.71
53340;BME280;46212;50.258;19.062;2022-11-14T11:48:38;99230.59;;;9.38;82.79
53340;BME280;46212;50.258;19.062;2022-11-14T11:51:08;99241.25;;;9.52;82.12
53340;BME280;46212;50.258;19.062;2022-11-14T11:53:40;99234.44;;;9.57;82.11
53340;BME280;46212;50.258;19.062;2022-11-14T11:56:15;99236.66;;;9.62;82.16
53340;BME280;46212;50.258;19.062;2022-11-14T11:58:49;99230.13;;;9.56;82.27
53340;BME280;46212;50.258;19.062;2022-11-14T12:01:15;99216.25;;;9.59;81.76
53340;BME280;46212;50.258;19.062;2022-11-14T12:03:49;99238.19;;;9.34;83.51
53340;BME280;46212;50.258;19.062;2022-11-14T12:06:23;99231.88;;;9.01;84.71
53340;BME280;46212;50.258;19.062;2022-11-14T12:11:26;99231.72;;;9.08;84.55
53340;BME280;46212;50.258;19.062;2022-11-14T12:14:16;99209.78;;;9.05;84.18
53340;BME280;46212;50.258;19.062;2022-11-14T12:19:55;99205.09;;;9.34;82.74
53340;BME280;46212;50.258;19.062;2022-11-14T12:25:36;99192.59;;;9.30;83.56
53340;BME280;46212;50.258;19.062;2022-11-14T12:30:38;99198.94;;;9.59;83.04
53340;BME280;46212;50.258;19.062;2022-11-14T12:33:42;99182.31;;;9.63;82.43
53340;BME280;46212;50.258;19.062;2022-11-14T12:36:07;99197.44;;;9.71;81.96
53340;BME280;46212;50.258;19.062;2022-11-14T12:38:47;99188.47;;;9.38;82.65
53340;BME280;46212;50.258;19.062;2022-11-14T12:41:24;99191.75;;;9.33;84.09
53340;BME280;46212;50.258;19.062;2022-11-14T12:43:50;99191.81;;;9.29;84.13
53340;BME280;46212;50.258;19.062;2022-11-14T12:46:16;99176.63;;;9.53;83.04
53340;BME280;46212;50.258;19.062;2022-11-14T12:48:42;99183.88;;;10.05;81.24
53340;BME280;46212;50.258;19.062;2022-11-14T12:53:48;99179.53;;;10.96;77.93
53340;BME280;46212;50.258;19.062;2022-11-14T12:56:47;99167.56;;;11.11;77.06
53340;BME280;46212;50.258;19.062;2022-11-14T12:59:26;99185.47;;;11.54;76.64
53340;BME280;46212;50.258;19.062;2022-11-14T13:09:37;99173.78;;;12.76;71.47
53340;BME280;46212;50.258;19.062;2022-11-14T13:15:27;99170.06;;;13.19;67.83
53340;BME280;46212;50.258;19.062;2022-11-14T13:18:24;99165.78;;;13.64;65.68
53340;BME280;46212;50.258;19.062;2022-11-14T13:21:25;99161.31;;;13.84;65.81
53340;BME280;46212;50.258;19.062;2022-11-14T13:24:12;99162.91;;;14.36;63.65
53340;BME280;46212;50.258;19.062;2022-11-14T13:26:39;99157.03;;;14.44;63.63
53340;BME280;46212;50.258;19.062;2022-11-14T13:29:05;99154.78;;;14.66;62.26
53340;BME280;46212;50.258;19.062;2022-11-14T13:31:48;99166.84;;;15.67;58.85
53340;BME280;46212;50.258;19.062;2022-11-14T13:34:35;99153.31;;;17.32;53.44
53340;BME280;46212;50.258;19.062;2022-11-14T13:51:00;99144.75;;;18.90;46.42
53340;BME280;46212;50.258;19.062;2022-11-14T13:53:28;99148.25;;;18.22;48.10
53340;BME280;46212;50.258;19.062;2022-11-14T13:56:04;99141.34;;;17.92;49.06
53340;BME280;46212;50.258;19.062;2022-11-14T14:01:37;99148.09;;;16.99;51.79
53340;BME280;46212;50.258;19.062;2022-11-14T14:12:37;99137.09;;;16.46;52.18
53340;BME280;46212;50.258;19.062;2022-11-14T14:15:24;99142.66;;;15.11;55.89